createdAt,value
2016-12-03T00:00:12.231Z,999.17
2016-12-03T00:01:12.258Z,999.2
2016-12-03T00:02:12.288Z,999.27
2016-12-03T00:03:12.311Z,999.29
2016-12-03T00:04:12.341Z,999.27
2016-12-03T00:05:12.369Z,999.29
2016-12-03T00:06:12.394Z,999.3
2016-12-03T00:07:12.423Z,999.28
2016-12-03T00:08:12.451Z,999.29
2016-12-03T00:09:12.484Z,999.3
2016-12-03T00:10:12.507Z,999.28
2016-12-03T00:11:12.533Z,999.28
2016-12-03T00:12:12.565Z,999.27
2016-12-03T00:13:12.591Z,999.27
2016-12-03T00:14:12.618Z,999.29
2016-12-03T00:15:12.644Z,999.33
2016-12-03T00:16:12.672Z,999.29
2016-12-03T00:17:12.701Z,999.29
2016-12-03T00:18:12.734Z,999.3
2016-12-03T00:19:12.754Z,999.3
2016-12-03T00:20:12.787Z,999.28
2016-12-03T00:21:12.812Z,999.25
2016-12-03T00:22:12.840Z,999.23
2016-12-03T00:23:12.869Z,999.21
2016-12-03T00:24:12.899Z,999.18
2016-12-03T00:25:12.924Z,999.16
2016-12-03T00:26:12.946Z,999.18
2016-12-03T00:27:12.981Z,999.17
2016-12-03T00:28:13.006Z,999.18
2016-12-03T00:29:13.033Z,999.23
2016-12-03T00:30:13.057Z,999.2
2016-12-03T00:31:13.086Z,999.2
2016-12-03T00:32:13.115Z,999.17
2016-12-03T00:33:13.139Z,999.18
2016-12-03T00:34:13.172Z,999.19
2016-12-03T00:35:13.201Z,999.13
2016-12-03T00:36:13.221Z,999.18
2016-12-03T00:37:13.253Z,999.13
2016-12-03T00:38:13.283Z,999.16
2016-12-03T00:39:13.304Z,999.13
2016-12-03T00:40:13.338Z,999.11
2016-12-03T00:41:13.365Z,999.16
2016-12-03T00:42:13.390Z,999.2
2016-12-03T00:43:13.414Z,999.19
2016-12-03T00:44:13.444Z,999.17
2016-12-03T00:45:13.472Z,999.16
2016-12-03T00:46:13.504Z,999.12
2016-12-03T00:47:13.529Z,999.16
2016-12-03T00:48:13.558Z,999.1
2016-12-03T00:49:13.583Z,999.13
2016-12-03T00:50:13.613Z,999.11
2016-12-03T00:51:13.637Z,999.11
2016-12-03T00:52:13.665Z,999.11
2016-12-03T00:53:13.695Z,999.19
2016-12-03T00:54:13.724Z,999.13
2016-12-03T00:55:13.748Z,999.21
2016-12-03T00:56:13.776Z,999.17
2016-12-03T00:57:13.804Z,999.18
2016-12-03T00:58:13.837Z,999.22
2016-12-03T00:59:13.858Z,999.15
2016-12-03T01:00:13.882Z,999.16
2016-12-03T01:01:13.915Z,999.1
2016-12-03T01:02:13.948Z,999.13
2016-12-03T01:03:13.975Z,999.1
2016-12-03T01:04:14.001Z,999.15
2016-12-03T01:05:14.025Z,999.13
2016-12-03T01:06:14.051Z,999.09
2016-12-03T01:07:14.079Z,999.11
2016-12-03T01:08:14.104Z,999.1
2016-12-03T01:09:14.137Z,999.12
2016-12-03T01:10:14.166Z,999.13
2016-12-03T01:11:14.190Z,999.08
2016-12-03T01:12:14.216Z,999.11
2016-12-03T01:13:14.250Z,999.09
2016-12-03T01:14:14.276Z,999.05
2016-12-03T01:15:14.305Z,999.09
2016-12-03T01:16:14.322Z,999.1
2016-12-03T01:17:14.358Z,999.08
2016-12-03T01:18:14.383Z,999.1
2016-12-03T01:19:14.408Z,999.05
2016-12-03T01:20:14.437Z,999.05
2016-12-03T01:21:14.459Z,999.05
2016-12-03T01:22:14.494Z,999.07
2016-12-03T01:23:14.521Z,999.08
2016-12-03T01:24:14.545Z,999.11
2016-12-03T01:25:14.576Z,999.06
2016-12-03T01:26:14.605Z,999.08
2016-12-03T01:27:14.630Z,999.04
2016-12-03T01:28:14.659Z,999.05
2016-12-03T01:29:14.683Z,999.08
2016-12-03T01:30:14.712Z,999.1
2016-12-03T01:31:14.736Z,999.09
2016-12-03T01:32:14.765Z,999.16
2016-12-03T01:33:14.789Z,999.14
2016-12-03T01:34:14.829Z,999.16
2016-12-03T01:35:14.848Z,999.16
2016-12-03T01:36:14.872Z,999.18
2016-12-03T01:37:14.902Z,999.2
2016-12-03T01:38:14.930Z,999.2
2016-12-03T01:39:14.958Z,999.21
2016-12-03T01:40:14.984Z,999.19
2016-12-03T01:41:15.007Z,999.2
2016-12-03T01:42:15.036Z,999.25
2016-12-03T01:43:15.069Z,999.23
2016-12-03T01:44:15.094Z,999.23
2016-12-03T01:45:15.119Z,999.26
2016-12-03T01:46:15.147Z,999.26
2016-12-03T01:47:15.177Z,999.2
2016-12-03T01:48:15.205Z,999.23
2016-12-03T01:49:15.233Z,999.2
2016-12-03T01:50:15.258Z,999.19
2016-12-03T01:51:15.282Z,999.19
2016-12-03T01:52:15.307Z,999.18
2016-12-03T01:53:15.340Z,999.17
2016-12-03T01:54:15.365Z,999.18
2016-12-03T01:55:15.390Z,999.16
2016-12-03T01:56:15.423Z,999.17
2016-12-03T01:57:15.451Z,999.15
2016-12-03T01:58:15.471Z,999.15
2016-12-03T01:59:15.500Z,999.17
2016-12-03T02:00:15.525Z,999.24
2016-12-03T02:01:15.550Z,999.19
2016-12-03T02:02:15.579Z,999.18
2016-12-03T02:03:15.611Z,999.16
2016-12-03T02:04:15.641Z,999.22
2016-12-03T02:05:15.665Z,999.15
2016-12-03T02:06:15.689Z,999.17
2016-12-03T02:07:15.713Z,999.18
2016-12-03T02:08:15.743Z,999.18
2016-12-03T02:09:15.771Z,999.22
2016-12-03T02:10:15.796Z,999.19
2016-12-03T02:11:15.825Z,999.18
2016-12-03T02:12:15.854Z,999.19
2016-12-03T02:13:15.883Z,999.2
2016-12-03T02:14:15.912Z,999.19
2016-12-03T02:15:15.936Z,999.16
2016-12-03T02:16:15.962Z,999.17
2016-12-03T02:17:15.989Z,999.14
2016-12-03T02:18:16.014Z,999.12
2016-12-03T02:19:16.042Z,999.12
2016-12-03T02:20:16.066Z,999.15
2016-12-03T02:21:16.096Z,999.15
2016-12-03T02:22:16.130Z,999.13
2016-12-03T02:23:16.154Z,999.09
2016-12-03T02:24:16.180Z,999.1
2016-12-03T02:25:16.208Z,999.1
2016-12-03T02:26:16.236Z,999.14
2016-12-03T02:27:16.261Z,999.11
2016-12-03T02:28:16.289Z,999.09
2016-12-03T02:29:16.318Z,999.11
2016-12-03T02:30:16.342Z,999.04
2016-12-03T02:31:16.372Z,999.05
2016-12-03T02:32:16.396Z,999.1
2016-12-03T02:33:16.425Z,999.1
2016-12-03T02:34:16.450Z,999.13
2016-12-03T02:35:16.479Z,999.1
2016-12-03T02:36:16.504Z,999.08
2016-12-03T02:37:16.536Z,999.06
2016-12-03T02:38:16.556Z,999.07
2016-12-03T02:39:16.586Z,999.04
2016-12-03T02:40:16.608Z,999.05
2016-12-03T02:41:16.639Z,999.03
2016-12-03T02:42:16.667Z,999.1
2016-12-03T02:43:16.696Z,999.08
2016-12-03T02:44:16.722Z,999.08
2016-12-03T02:45:16.750Z,999.08
2016-12-03T02:46:16.778Z,999.14
2016-12-03T02:47:16.805Z,999.08
2016-12-03T02:48:16.823Z,999.09
2016-12-03T02:49:16.856Z,999.09
2016-12-03T02:50:16.881Z,999.08
2016-12-03T02:51:16.914Z,999.09
2016-12-03T02:52:16.935Z,999.11
2016-12-03T02:53:16.963Z,999.08
2016-12-03T02:54:16.993Z,999.11
2016-12-03T02:55:17.020Z,999.05
2016-12-03T02:56:17.045Z,999.08
2016-12-03T02:57:17.070Z,999.04
2016-12-03T02:58:17.099Z,999.05
2016-12-03T02:59:17.126Z,999.07
2016-12-03T03:00:17.156Z,999.1
2016-12-03T03:01:17.181Z,999.03
2016-12-03T03:02:17.205Z,999.03
2016-12-03T03:03:17.234Z,999.02
2016-12-03T03:04:17.263Z,999.01
2016-12-03T03:05:17.292Z,999.01
2016-12-03T03:06:17.315Z,998.99
2016-12-03T03:07:17.340Z,998.97
2016-12-03T03:08:17.366Z,998.98
2016-12-03T03:09:17.398Z,998.95
2016-12-03T03:10:17.427Z,998.93
2016-12-03T03:11:17.451Z,998.98
2016-12-03T03:12:17.481Z,998.95
2016-12-03T03:13:17.503Z,998.95
2016-12-03T03:14:17.526Z,998.93
2016-12-03T03:15:17.559Z,998.99
2016-12-03T03:16:17.586Z,999
2016-12-03T03:17:17.608Z,998.97
2016-12-03T03:18:17.637Z,998.97
2016-12-03T03:19:17.662Z,998.97
2016-12-03T03:20:17.694Z,998.98
2016-12-03T03:21:17.719Z,998.99
2016-12-03T03:22:17.747Z,998.96
2016-12-03T03:23:17.772Z,998.96
2016-12-03T03:24:17.797Z,998.91
2016-12-03T03:25:17.823Z,998.92
2016-12-03T03:26:17.852Z,998.94
2016-12-03T03:27:17.883Z,998.94
2016-12-03T03:28:17.903Z,999.01
2016-12-03T03:29:17.937Z,999
2016-12-03T03:30:17.953Z,999.03
2016-12-03T03:31:17.988Z,998.99
2016-12-03T03:32:18.015Z,998.98
2016-12-03T03:33:18.041Z,998.99
2016-12-03T03:34:18.065Z,998.98
2016-12-03T03:35:18.093Z,999.01
2016-12-03T03:36:18.117Z,998.95
2016-12-03T03:37:18.146Z,998.95
2016-12-03T03:38:18.181Z,998.95
2016-12-03T03:39:18.203Z,998.99
2016-12-03T03:40:18.228Z,998.93
2016-12-03T03:41:18.257Z,998.96
2016-12-03T03:42:18.282Z,998.96
2016-12-03T03:43:18.307Z,998.95
2016-12-03T03:44:18.336Z,998.97
2016-12-03T03:45:18.361Z,998.89
2016-12-03T03:46:18.388Z,998.93
2016-12-03T03:47:18.412Z,998.93
2016-12-03T03:48:18.445Z,998.95
2016-12-03T03:49:18.466Z,998.91
2016-12-03T03:50:18.494Z,998.95
2016-12-03T03:51:18.518Z,998.94
2016-12-03T03:52:18.549Z,998.94
2016-12-03T03:53:18.576Z,998.98
2016-12-03T03:54:18.603Z,998.9
2016-12-03T03:55:18.626Z,998.92
2016-12-03T03:56:18.654Z,998.92
2016-12-03T03:57:18.683Z,998.91
2016-12-03T03:58:18.712Z,998.9
2016-12-03T03:59:18.736Z,998.94
2016-12-03T04:00:18.761Z,998.91
2016-12-03T04:01:18.789Z,998.85
2016-12-03T04:02:18.818Z,998.91
2016-12-03T04:03:18.846Z,998.88
2016-12-03T04:04:18.865Z,998.93
2016-12-03T04:05:18.895Z,998.92
2016-12-03T04:06:18.919Z,998.94
2016-12-03T04:07:18.952Z,998.91
2016-12-03T04:08:18.978Z,998.95
2016-12-03T04:09:19.001Z,998.9
2016-12-03T04:10:19.235Z,998.88
2016-12-03T04:11:19.054Z,998.9
2016-12-03T04:12:19.087Z,998.89
2016-12-03T04:13:19.104Z,998.91
2016-12-03T04:14:19.141Z,998.91
2016-12-03T04:15:19.166Z,998.88
2016-12-03T04:16:19.187Z,998.92
2016-12-03T04:17:19.214Z,998.91
2016-12-03T04:18:19.552Z,998.89
2016-12-03T04:19:19.267Z,998.9
2016-12-03T04:20:19.296Z,998.91
2016-12-03T04:21:19.316Z,998.9
2016-12-03T04:22:19.353Z,998.93
2016-12-03T04:23:19.376Z,998.86
2016-12-03T04:24:19.398Z,998.85
2016-12-03T04:25:19.425Z,998.89
2016-12-03T04:26:19.455Z,998.84
2016-12-03T04:27:19.485Z,998.92
2016-12-03T04:28:19.513Z,998.87
2016-12-03T04:29:19.533Z,998.88
2016-12-03T04:30:19.563Z,998.86
2016-12-03T04:31:19.587Z,998.88
2016-12-03T04:32:19.621Z,998.89
2016-12-03T04:33:19.644Z,998.88
2016-12-03T04:34:19.674Z,998.88
2016-12-03T04:35:19.697Z,998.9
2016-12-03T04:36:19.722Z,998.9
2016-12-03T04:37:19.746Z,998.89
2016-12-03T04:38:19.771Z,998.9
2016-12-03T04:39:19.800Z,998.91
2016-12-03T04:40:19.825Z,998.91
2016-12-03T04:41:19.855Z,998.9
2016-12-03T04:42:19.879Z,998.9
2016-12-03T04:43:19.912Z,998.91
2016-12-03T04:44:19.936Z,998.91
2016-12-03T04:45:19.965Z,998.89
2016-12-03T04:46:19.988Z,998.92
2016-12-03T04:47:20.014Z,998.96
2016-12-03T04:48:20.045Z,998.94
2016-12-03T04:49:20.072Z,998.95
2016-12-03T04:50:20.097Z,998.95
2016-12-03T04:51:20.121Z,998.95
2016-12-03T04:52:20.150Z,998.94
2016-12-03T04:53:20.180Z,998.96
2016-12-03T04:54:20.203Z,998.95
2016-12-03T04:55:20.232Z,998.98
2016-12-03T04:56:20.257Z,999.01
2016-12-03T04:57:20.282Z,998.98
2016-12-03T04:58:20.306Z,999.03
2016-12-03T04:59:20.337Z,999
2016-12-03T05:00:20.364Z,998.98
2016-12-03T05:01:20.393Z,999
2016-12-03T05:02:20.414Z,999.02
2016-12-03T05:03:20.441Z,998.98
2016-12-03T05:04:20.467Z,999.03
2016-12-03T05:05:20.496Z,999
2016-12-03T05:06:20.520Z,999.01
2016-12-03T05:07:20.551Z,999
2016-12-03T05:08:20.573Z,998.96
2016-12-03T05:09:20.602Z,998.94
2016-12-03T05:10:20.627Z,998.94
2016-12-03T05:11:20.656Z,998.91
2016-12-03T05:12:20.684Z,998.93
2016-12-03T05:13:20.706Z,998.95
2016-12-03T05:14:20.734Z,998.96
2016-12-03T05:15:20.767Z,998.97
2016-12-03T05:16:20.788Z,998.98
2016-12-03T05:17:20.812Z,998.97
2016-12-03T05:18:20.841Z,998.93
2016-12-03T05:19:20.861Z,999
2016-12-03T05:20:20.890Z,998.97
2016-12-03T05:21:20.923Z,998.94
2016-12-03T05:22:20.952Z,998.97
2016-12-03T05:23:20.973Z,999
2016-12-03T05:24:21.001Z,999.01
2016-12-03T05:25:21.026Z,998.96
2016-12-03T05:26:21.054Z,998.95
2016-12-03T05:27:21.084Z,998.98
2016-12-03T05:28:21.112Z,999
2016-12-03T05:29:21.135Z,998.96
2016-12-03T05:30:21.161Z,998.97
2016-12-03T05:31:21.186Z,999
2016-12-03T05:32:21.211Z,998.99
2016-12-03T05:33:21.239Z,998.99
2016-12-03T05:34:21.267Z,998.96
2016-12-03T05:35:21.301Z,998.98
2016-12-03T05:36:21.321Z,999.01
2016-12-03T05:37:21.346Z,999.02
2016-12-03T05:38:21.371Z,999
2016-12-03T05:39:21.400Z,999
2016-12-03T05:40:21.423Z,999.05
2016-12-03T05:41:21.454Z,999.04
2016-12-03T05:42:21.477Z,999.06
2016-12-03T05:43:21.511Z,999.06
2016-12-03T05:44:21.531Z,999.05
2016-12-03T05:45:21.558Z,999.03
2016-12-03T05:46:21.581Z,999.05
2016-12-03T05:47:21.609Z,999
2016-12-03T05:48:21.641Z,999.03
2016-12-03T05:49:21.663Z,999.04
2016-12-03T05:50:21.691Z,999.06
2016-12-03T05:51:21.717Z,999.07
2016-12-03T05:52:21.745Z,998.99
2016-12-03T05:53:21.774Z,999.05
2016-12-03T05:54:21.805Z,999.03
2016-12-03T05:55:21.821Z,999.05
2016-12-03T05:56:21.848Z,998.99
2016-12-03T05:57:21.880Z,999.08
2016-12-03T05:58:21.905Z,999.07
2016-12-03T05:59:21.938Z,999.1
2016-12-03T06:00:21.959Z,999.11
2016-12-03T06:01:21.983Z,999.15
2016-12-03T06:02:22.008Z,999.1
2016-12-03T06:03:22.040Z,999.13
2016-12-03T06:04:22.066Z,999.12
2016-12-03T06:05:22.090Z,999.08
2016-12-03T06:06:22.110Z,999.07
2016-12-03T06:07:22.143Z,999.07
2016-12-03T06:08:22.172Z,999.09
2016-12-03T06:09:22.201Z,999.12
2016-12-03T06:10:22.225Z,999.11
2016-12-03T06:11:22.251Z,999.1
2016-12-03T06:12:22.279Z,999.12
2016-12-03T06:13:22.306Z,999.2
2016-12-03T06:14:22.333Z,999.2
2016-12-03T06:15:22.357Z,999.12
2016-12-03T06:16:22.385Z,999.14
2016-12-03T06:17:22.415Z,999.12
2016-12-03T06:18:22.440Z,999.12
2016-12-03T06:19:22.469Z,999.15
2016-12-03T06:20:22.489Z,999.14
2016-12-03T06:21:22.519Z,999.1
2016-12-03T06:22:22.546Z,999.14
2016-12-03T06:23:22.571Z,999.11
2016-12-03T06:24:22.598Z,999.14
2016-12-03T06:25:22.621Z,999.1
2016-12-03T06:26:22.651Z,999.09
2016-12-03T06:27:22.679Z,999.12
2016-12-03T06:28:22.707Z,999.12
2016-12-03T06:29:22.736Z,999.1
2016-12-03T06:30:22.756Z,999.16
2016-12-03T06:31:22.789Z,999.13
2016-12-03T06:32:22.810Z,999.13
2016-12-03T06:33:22.843Z,999.15
2016-12-03T06:34:22.868Z,999.11
2016-12-03T06:35:22.897Z,999.19
2016-12-03T06:36:22.921Z,999.14
2016-12-03T06:37:22.946Z,999.16
2016-12-03T06:38:22.970Z,999.11
2016-12-03T06:39:23.003Z,999.14
2016-12-03T06:40:23.020Z,999.14
2016-12-03T06:41:23.050Z,999.14
2016-12-03T06:42:23.082Z,999.12
2016-12-03T06:43:23.107Z,999.12
2016-12-03T06:44:23.136Z,999.12
2016-12-03T06:45:23.164Z,999.16
2016-12-03T06:46:23.190Z,999.17
2016-12-03T06:47:23.217Z,999.17
2016-12-03T06:48:23.239Z,999.15
2016-12-03T06:49:23.266Z,999.13
2016-12-03T06:50:23.288Z,999.15
2016-12-03T06:51:23.325Z,999.2
2016-12-03T06:52:23.350Z,999.19
2016-12-03T06:53:23.376Z,999.2
2016-12-03T06:54:23.404Z,999.2
2016-12-03T06:55:23.433Z,999.23
2016-12-03T06:56:23.454Z,999.17
2016-12-03T06:57:23.486Z,999.27
2016-12-03T06:58:23.507Z,999.29
2016-12-03T06:59:23.543Z,999.27
2016-12-03T07:00:23.569Z,999.24
2016-12-03T07:01:23.590Z,999.2
2016-12-03T07:02:23.623Z,999.26
2016-12-03T07:03:23.648Z,999.24
2016-12-03T07:04:23.676Z,999.24
2016-12-03T07:05:23.696Z,999.22
2016-12-03T07:06:23.721Z,999.31
2016-12-03T07:07:23.746Z,999.27
2016-12-03T07:08:23.781Z,999.27
2016-12-03T07:09:23.804Z,999.3
2016-12-03T07:10:23.833Z,999.31
2016-12-03T07:11:23.855Z,999.3
2016-12-03T07:12:23.891Z,999.29
2016-12-03T07:13:23.915Z,999.29
2016-12-03T07:14:23.936Z,999.37
2016-12-03T07:15:23.968Z,999.34
2016-12-03T07:16:23.994Z,999.36
2016-12-03T07:17:24.027Z,999.4
2016-12-03T07:18:24.049Z,999.38
2016-12-03T07:19:24.076Z,999.37
2016-12-03T07:20:24.101Z,999.39
2016-12-03T07:21:24.129Z,999.43
2016-12-03T07:22:24.160Z,999.42
2016-12-03T07:23:24.184Z,999.45
2016-12-03T07:24:24.209Z,999.5
2016-12-03T07:25:24.238Z,999.48
2016-12-03T07:26:24.266Z,999.5
2016-12-03T07:27:24.295Z,999.53
2016-12-03T07:28:24.324Z,999.52
2016-12-03T07:29:24.349Z,999.46
2016-12-03T07:30:24.373Z,999.52
2016-12-03T07:31:24.402Z,999.58
2016-12-03T07:32:24.423Z,999.54
2016-12-03T07:33:24.451Z,999.55
2016-12-03T07:34:24.484Z,999.58
2016-12-03T07:35:24.505Z,999.6
2016-12-03T07:36:24.538Z,999.59
2016-12-03T07:37:24.563Z,999.64
2016-12-03T07:38:24.591Z,999.63
2016-12-03T07:39:24.612Z,999.67
2016-12-03T07:40:24.641Z,999.66
2016-12-03T07:41:24.667Z,999.68
2016-12-03T07:42:24.699Z,999.73
2016-12-03T07:43:24.724Z,999.7
2016-12-03T07:44:24.753Z,999.74
2016-12-03T07:45:24.778Z,999.71
2016-12-03T07:46:24.806Z,999.76
2016-12-03T07:47:24.831Z,999.74
2016-12-03T07:48:24.863Z,999.78
2016-12-03T07:49:24.887Z,999.76
2016-12-03T07:50:24.914Z,999.79
2016-12-03T07:51:24.942Z,999.77
2016-12-03T07:52:24.967Z,999.76
2016-12-03T07:53:24.995Z,999.76
2016-12-03T07:54:25.020Z,999.77
2016-12-03T07:55:25.049Z,999.79
2016-12-03T07:56:25.074Z,999.79
2016-12-03T07:57:25.107Z,999.8
2016-12-03T07:58:25.132Z,999.78
2016-12-03T07:59:25.156Z,999.82
2016-12-03T08:00:25.186Z,999.83
2016-12-03T08:01:25.213Z,999.81
2016-12-03T08:02:25.243Z,999.85
2016-12-03T08:03:25.267Z,999.81
2016-12-03T08:04:25.294Z,999.77
2016-12-03T08:05:25.321Z,999.82
2016-12-03T08:06:25.350Z,999.87
2016-12-03T08:07:25.370Z,999.86
2016-12-03T08:08:25.399Z,999.85
2016-12-03T08:09:25.424Z,999.86
2016-12-03T08:10:25.452Z,999.84
2016-12-03T08:11:25.474Z,999.89
2016-12-03T08:12:25.507Z,999.83
2016-12-03T08:13:25.541Z,999.87
2016-12-03T08:14:25.564Z,999.87
2016-12-03T08:15:25.592Z,999.87
2016-12-03T08:16:25.613Z,999.9
2016-12-03T08:17:25.646Z,999.86
2016-12-03T08:18:25.667Z,999.87
2016-12-03T08:19:25.700Z,999.9
2016-12-03T08:20:25.729Z,999.87
2016-12-03T08:21:25.749Z,999.85
2016-12-03T08:22:25.778Z,999.88
2016-12-03T08:23:25.807Z,999.88
2016-12-03T08:24:25.836Z,999.86
2016-12-03T08:25:25.856Z,999.96
2016-12-03T08:26:25.885Z,999.9
2016-12-03T08:27:25.918Z,999.9
2016-12-03T08:28:25.939Z,999.89
2016-12-03T08:29:25.971Z,999.88
2016-12-03T08:30:25.992Z,999.88
2016-12-03T08:31:26.020Z,999.91
2016-12-03T08:32:26.045Z,999.86
2016-12-03T08:33:26.070Z,999.89
2016-12-03T08:34:26.102Z,999.9
2016-12-03T08:35:26.131Z,999.92
2016-12-03T08:36:26.154Z,999.95
2016-12-03T08:37:26.181Z,999.94
2016-12-03T08:38:26.213Z,1000.02
2016-12-03T08:39:26.268Z,999.97
2016-12-03T08:40:26.267Z,999.98
2016-12-03T08:41:26.296Z,999.92
2016-12-03T08:42:26.325Z,999.99
2016-12-03T08:43:26.345Z,1000.05
2016-12-03T08:44:26.375Z,1000.02
2016-12-03T08:45:26.402Z,1000.07
2016-12-03T08:46:26.427Z,1000.06
2016-12-03T08:47:26.451Z,1000.03
2016-12-03T08:48:26.481Z,1000.02
2016-12-03T08:49:26.509Z,1000.06
2016-12-03T08:50:26.544Z,1000.08
2016-12-03T08:51:26.563Z,1000.12
2016-12-03T08:52:26.592Z,1000.13
2016-12-03T08:53:26.623Z,1000.17
2016-12-03T08:54:26.649Z,1000.18
2016-12-03T08:55:26.675Z,1000.19
2016-12-03T08:56:26.703Z,1000.15
2016-12-03T08:57:26.727Z,1000.18
2016-12-03T08:58:26.758Z,1000.18
2016-12-03T08:59:26.794Z,1000.2
2016-12-03T09:00:26.814Z,1000.18
2016-12-03T09:01:26.834Z,1000.18
2016-12-03T09:02:26.866Z,1000.22
2016-12-03T09:03:26.892Z,1000.2
2016-12-03T09:04:26.924Z,1000.25
2016-12-03T09:05:26.949Z,1000.25
2016-12-03T09:06:26.972Z,1000.16
2016-12-03T09:07:27.003Z,1000.19
2016-12-03T09:08:27.033Z,1000.16
2016-12-03T09:09:27.061Z,1000.13
2016-12-03T09:10:27.089Z,1000.2
2016-12-03T09:11:27.118Z,1000.13
2016-12-03T09:12:27.140Z,1000.19
2016-12-03T09:13:27.163Z,1000.22
2016-12-03T09:14:27.200Z,1000.22
2016-12-03T09:15:27.221Z,1000.17
2016-12-03T09:16:27.249Z,1000.16
2016-12-03T09:17:27.278Z,1000.26
2016-12-03T09:18:27.310Z,1000.24
2016-12-03T09:19:27.334Z,1000.3
2016-12-03T09:20:27.361Z,1000.34
2016-12-03T09:21:27.385Z,1000.28
2016-12-03T09:22:27.413Z,1000.31
2016-12-03T09:23:27.442Z,1000.28
2016-12-03T09:24:27.475Z,1000.26
2016-12-03T09:25:27.500Z,1000.29
2016-12-03T09:26:27.537Z,1000.25
2016-12-03T09:27:27.553Z,1000.31
2016-12-03T09:28:27.578Z,1000.26
2016-12-03T09:29:27.611Z,1000.33
2016-12-03T09:30:27.639Z,1000.27
2016-12-03T09:31:27.660Z,1000.3
2016-12-03T09:32:27.689Z,1000.25
2016-12-03T09:33:27.717Z,1000.28
2016-12-03T09:34:27.754Z,1000.29
2016-12-03T09:35:27.778Z,1000.29
2016-12-03T09:36:27.802Z,1000.28
2016-12-03T09:37:27.828Z,1000.3
2016-12-03T09:38:27.857Z,1000.31
2016-12-03T09:39:27.884Z,1000.32
2016-12-03T09:40:27.911Z,1000.32
2016-12-03T09:41:27.940Z,1000.3
2016-12-03T09:42:27.964Z,1000.39
2016-12-03T09:43:27.996Z,1000.33
2016-12-03T09:44:28.021Z,1000.4
2016-12-03T09:45:28.055Z,1000.36
2016-12-03T09:46:28.078Z,1000.34
2016-12-03T09:47:28.105Z,1000.41
2016-12-03T09:48:28.132Z,1000.33
2016-12-03T09:49:28.161Z,1000.32
2016-12-03T09:50:28.186Z,1000.37
2016-12-03T09:51:28.216Z,1000.35
2016-12-03T09:52:28.241Z,1000.29
2016-12-03T09:53:28.268Z,1000.36
2016-12-03T09:54:28.302Z,1000.3
2016-12-03T09:55:28.325Z,1000.35
2016-12-03T09:56:28.355Z,1000.35
2016-12-03T09:57:28.382Z,1000.35
2016-12-03T09:58:28.402Z,1000.41
2016-12-03T09:59:28.429Z,1000.33
2016-12-03T10:00:28.528Z,1000.41
2016-12-03T10:01:28.489Z,1000.4
2016-12-03T10:02:28.511Z,1000.37
2016-12-03T10:03:28.539Z,1000.41
2016-12-03T10:04:28.577Z,1000.42
2016-12-03T10:05:28.594Z,1000.38
2016-12-03T10:06:28.622Z,1000.36
2016-12-03T10:07:28.651Z,1000.41
2016-12-03T10:08:28.677Z,1000.33
2016-12-03T10:09:28.710Z,1000.4
2016-12-03T10:10:28.740Z,1000.34
2016-12-03T10:11:28.767Z,1000.35
2016-12-03T10:12:28.794Z,1000.41
2016-12-03T10:13:28.821Z,1000.33
2016-12-03T10:14:28.850Z,1000.4
2016-12-03T10:15:28.877Z,1000.39
2016-12-03T10:16:28.903Z,1000.34
2016-12-03T10:17:28.932Z,1000.38
2016-12-03T10:18:28.960Z,1000.39
2016-12-03T10:19:28.990Z,1000.34
2016-12-03T10:20:29.011Z,1000.29
2016-12-03T10:21:29.038Z,1000.33
2016-12-03T10:22:29.067Z,1000.33
2016-12-03T10:23:29.098Z,1000.35
2016-12-03T10:24:29.124Z,1000.33
2016-12-03T10:25:29.157Z,1000.35
2016-12-03T10:26:29.180Z,1000.35
2016-12-03T10:27:29.207Z,1000.32
2016-12-03T10:28:29.231Z,1000.28
2016-12-03T10:29:29.259Z,1000.27
2016-12-03T10:30:29.288Z,1000.3
2016-12-03T10:31:29.319Z,1000.27
2016-12-03T10:32:29.345Z,1000.29
2016-12-03T10:33:29.374Z,1000.27
2016-12-03T10:34:29.398Z,1000.24
2016-12-03T10:35:29.428Z,1000.28
2016-12-03T10:36:29.453Z,1000.22
2016-12-03T10:37:29.481Z,1000.21
2016-12-03T10:38:29.525Z,1000.19
2016-12-03T10:39:29.550Z,1000.19
2016-12-03T10:40:29.575Z,1000.16
2016-12-03T10:41:29.605Z,1000.16
2016-12-03T10:42:29.636Z,1000.11
2016-12-03T10:43:29.661Z,1000.1
2016-12-03T10:44:29.689Z,1000.15
2016-12-03T10:45:29.714Z,1000.09
2016-12-03T10:46:29.743Z,1000.09
2016-12-03T10:47:29.772Z,1000.07
2016-12-03T10:48:29.800Z,1000.1
2016-12-03T10:49:29.825Z,1000.08
2016-12-03T10:50:29.853Z,1000.09
2016-12-03T10:51:29.887Z,1000.1
2016-12-03T10:52:29.910Z,1000.11
2016-12-03T10:53:29.926Z,1000.08
2016-12-03T10:54:29.954Z,1000.08
2016-12-03T10:55:29.980Z,1000.11
2016-12-03T10:56:30.007Z,1000.07
2016-12-03T10:57:30.028Z,1000.11
2016-12-03T10:58:30.065Z,1000.03
2016-12-03T10:59:30.089Z,1000.07
2016-12-03T11:00:30.118Z,1000.12
2016-12-03T11:01:30.148Z,1000.01
2016-12-03T11:02:30.176Z,1000.02
2016-12-03T11:03:30.201Z,1000.03
2016-12-03T11:04:30.233Z,999.98
2016-12-03T11:05:30.262Z,999.96
2016-12-03T11:06:30.285Z,999.99
2016-12-03T11:07:30.314Z,999.99
2016-12-03T11:08:30.340Z,999.97
2016-12-03T11:09:30.363Z,1000.04
2016-12-03T11:10:30.395Z,999.99
2016-12-03T11:11:30.422Z,1000.01
2016-12-03T11:12:30.446Z,999.91
2016-12-03T11:13:30.475Z,1000.01
2016-12-03T11:14:30.502Z,999.98
2016-12-03T11:15:30.535Z,999.95
2016-12-03T11:16:30.562Z,999.94
2016-12-03T11:17:30.585Z,999.91
2016-12-03T11:18:30.618Z,999.95
2016-12-03T11:19:30.642Z,999.97
2016-12-03T11:20:30.695Z,999.89
2016-12-03T11:21:30.696Z,999.9
2016-12-03T11:22:30.725Z,999.88
2016-12-03T11:23:30.753Z,999.94
2016-12-03T11:24:30.782Z,999.91
2016-12-03T11:25:30.811Z,999.93
2016-12-03T11:26:30.836Z,999.95
2016-12-03T11:27:30.868Z,999.97
2016-12-03T11:28:30.897Z,999.93
2016-12-03T11:29:30.918Z,999.89
2016-12-03T11:30:30.947Z,999.94
2016-12-03T11:31:30.981Z,999.92
2016-12-03T11:32:31.005Z,999.89
2016-12-03T11:33:31.033Z,999.94
2016-12-03T11:34:31.061Z,999.93
2016-12-03T11:35:31.086Z,999.92
2016-12-03T11:36:31.113Z,999.91
2016-12-03T11:37:31.140Z,999.93
2016-12-03T11:38:31.170Z,999.96
2016-12-03T11:39:31.202Z,999.95
2016-12-03T11:40:31.222Z,999.98
2016-12-03T11:41:31.251Z,999.93
2016-12-03T11:42:31.280Z,999.93
2016-12-03T11:43:31.313Z,999.91
2016-12-03T11:44:31.338Z,999.97
2016-12-03T11:45:31.363Z,999.93
2016-12-03T11:46:31.390Z,999.93
2016-12-03T11:47:31.418Z,999.91
2016-12-03T11:48:31.444Z,999.9
2016-12-03T11:49:31.477Z,999.85
2016-12-03T11:50:31.502Z,999.84
2016-12-03T11:51:31.528Z,999.83
2016-12-03T11:52:31.560Z,999.89
2016-12-03T11:53:31.585Z,999.83
2016-12-03T11:54:31.626Z,999.84
2016-12-03T11:55:31.655Z,999.82
2016-12-03T11:56:31.683Z,999.83
2016-12-03T11:57:31.711Z,999.84
2016-12-03T11:58:31.742Z,999.86
2016-12-03T11:59:31.767Z,999.87
2016-12-03T12:00:31.796Z,999.88
2016-12-03T12:01:31.825Z,999.89
2016-12-03T12:02:31.849Z,999.89
2016-12-03T12:03:31.878Z,999.88
2016-12-03T12:04:31.908Z,999.88
2016-12-03T12:05:31.935Z,999.89
2016-12-03T12:06:31.959Z,999.84
2016-12-03T12:07:31.993Z,999.82
2016-12-03T12:08:32.022Z,999.84
2016-12-03T12:09:32.043Z,999.81
2016-12-03T12:10:32.073Z,999.83
2016-12-03T12:11:32.101Z,999.85
2016-12-03T12:12:32.137Z,999.84
2016-12-03T12:13:32.163Z,999.85
2016-12-03T12:14:32.241Z,999.86
2016-12-03T12:15:32.216Z,999.89
2016-12-03T12:16:32.245Z,999.82
2016-12-03T12:17:32.270Z,999.83
2016-12-03T12:18:32.303Z,999.83
2016-12-03T12:19:32.328Z,999.82
2016-12-03T12:20:32.352Z,999.89
2016-12-03T12:21:32.381Z,999.87
2016-12-03T12:22:32.411Z,999.8
2016-12-03T12:23:32.435Z,999.79
2016-12-03T12:24:32.467Z,999.78
2016-12-03T12:25:32.493Z,999.77
2016-12-03T12:26:32.518Z,999.73
2016-12-03T12:27:32.551Z,999.81